CPZ2 weather

Alliston (Stevenson Memorial Hospital) Heliport
Alliston, Ontario, Canada

Public forecast

Using degrees Celsius for public forecast. Weather courtesy of forecast.io.

Closest aviation weather report (METAR) to Alliston (Stevenson Memorial Hospital) Heliport

Closest report is CFB Borden, 7.2 nm (13.3 km) NNW. Retrieved 2019/10/22 18:00 UTC (28 minutes ago):

CYBN 221800Z AUTO 18015KT 9SM CLR 16/08 A2960 RMK PCPN 05MM PAST HR SLP025

Closest aviation forecast (TAF) to Alliston (Stevenson Memorial Hospital) Heliport

Closest forecast is CFB Borden, 7.2 nm (13.3 km) NNW. Retrieved 2019/10/22 18:33 UTC (0 seconds ago):

TAF TAF CYBN 221730Z 2218/2306 20008G18KT P6SM BKN030 BECMG 2219/2221 22010G20KT FM230300 22008KT P6SM SCT020 BKN030 RMK FCST BASED ON AUTO OBS NXT FCST BY 230000Z